<?xml version="1.0" encoding="UTF-8" standalone="no" ?>
<gpx xmlns="http://www.topografix.com/GPX/1/1" xmlns:xsi="http://www.w3.org/2001/XMLSchema-instance" xsi:schemaLocation="http://www.topografix.com/GPX/1/1 http://www.topografix.com/GPX/1/1/gpx.xsd" version="1.1" creator="VisuGPX - https://www.visugpx.com">
  <metadata>
    <name>Explo Espadon</name>
  </metadata>
  <wpt lat="47.67549" lon="-3.17136">
    <ele>10</ele>
    <name><![CDATA[Point de passage 1]]></name>
    <type><![CDATA[GENERIC]]></type>
  </wpt>
  <wpt lat="47.58735" lon="-3.02746">
    <ele>4</ele>
    <name><![CDATA[Point de passage 2]]></name>
    <type><![CDATA[GENERIC]]></type>
  </wpt>
  <trk>
    <name><![CDATA[Explo Espadon]]></name>
    <trkseg>
      <trkpt lat="47.67549" lon="-3.17136">
        <ele>10</ele>
        <time>2025-07-15T12:04:18.000Z</time>
      </trkpt>
      <trkpt lat="47.67289" lon="-3.17359">
        <ele>8</ele>
        <time>2025-07-15T12:10:02.000Z</time>
      </trkpt>
      <trkpt lat="47.67192" lon="-3.17447">
        <ele>11</ele>
        <time>2025-07-15T12:12:43.000Z</time>
      </trkpt>
      <trkpt lat="47.66637" lon="-3.17925">
        <ele>12</ele>
        <time>2025-07-15T12:25:08.000Z</time>
      </trkpt>
      <trkpt lat="47.66498" lon="-3.18059">
        <ele>13</ele>
        <time>2025-07-15T12:28:29.000Z</time>
      </trkpt>
      <trkpt lat="47.66201" lon="-3.18316">
        <ele>10</ele>
        <time>2025-07-15T12:35:02.000Z</time>
      </trkpt>
      <trkpt lat="47.66222" lon="-3.18408">
        <ele>12</ele>
        <time>2025-07-15T12:36:37.000Z</time>
      </trkpt>
      <trkpt lat="47.66236" lon="-3.18532">
        <ele>15</ele>
        <time>2025-07-15T12:38:45.000Z</time>
      </trkpt>
      <trkpt lat="47.66257" lon="-3.18776">
        <ele>11</ele>
        <time>2025-07-15T12:41:55.000Z</time>
      </trkpt>
      <trkpt lat="47.66235" lon="-3.18847">
        <ele>8</ele>
        <time>2025-07-15T12:42:56.000Z</time>
      </trkpt>
      <trkpt lat="47.662" lon="-3.18745">
        <ele>9</ele>
        <time>2025-07-15T12:44:34.000Z</time>
      </trkpt>
      <trkpt lat="47.66134" lon="-3.18725">
        <ele>2</ele>
        <time>2025-07-15T12:45:52.000Z</time>
      </trkpt>
      <trkpt lat="47.66074" lon="-3.18752">
        <ele>3</ele>
        <time>2025-07-15T12:47:14.000Z</time>
      </trkpt>
      <trkpt lat="47.66081" lon="-3.1882">
        <ele>8</ele>
        <time>2025-07-15T12:48:58.000Z</time>
      </trkpt>
      <trkpt lat="47.66077" lon="-3.18926">
        <ele>12</ele>
        <time>2025-07-15T12:51:01.000Z</time>
      </trkpt>
      <trkpt lat="47.66026" lon="-3.19011">
        <ele>11</ele>
        <time>2025-07-15T12:52:28.000Z</time>
      </trkpt>
      <trkpt lat="47.65951" lon="-3.19147">
        <ele>10</ele>
        <time>2025-07-15T12:54:44.000Z</time>
      </trkpt>
      <trkpt lat="47.65932" lon="-3.19432">
        <ele>12</ele>
        <time>2025-07-15T12:58:46.000Z</time>
      </trkpt>
      <trkpt lat="47.65939" lon="-3.1949">
        <ele>11</ele>
        <time>2025-07-15T12:59:31.000Z</time>
      </trkpt>
      <trkpt lat="47.65948" lon="-3.19599">
        <ele>11</ele>
        <time>2025-07-15T13:00:56.000Z</time>
      </trkpt>
      <trkpt lat="47.65935" lon="-3.19885">
        <ele>16</ele>
        <time>2025-07-15T13:05:28.000Z</time>
      </trkpt>
      <trkpt lat="47.65955" lon="-3.19946">
        <ele>17</ele>
        <time>2025-07-15T13:06:31.000Z</time>
      </trkpt>
      <trkpt lat="47.661" lon="-3.20102">
        <ele>15</ele>
        <time>2025-07-15T13:09:56.000Z</time>
      </trkpt>
      <trkpt lat="47.66143" lon="-3.20218">
        <ele>14</ele>
        <time>2025-07-15T13:11:38.000Z</time>
      </trkpt>
      <trkpt lat="47.66194" lon="-3.20538">
        <ele>14</ele>
        <time>2025-07-15T13:15:51.000Z</time>
      </trkpt>
      <trkpt lat="47.66194" lon="-3.20626">
        <ele>11</ele>
        <time>2025-07-15T13:16:59.000Z</time>
      </trkpt>
      <trkpt lat="47.66148" lon="-3.20711">
        <ele>7</ele>
        <time>2025-07-15T13:18:23.000Z</time>
      </trkpt>
      <trkpt lat="47.66088" lon="-3.20725">
        <ele>5</ele>
        <time>2025-07-15T13:19:32.000Z</time>
      </trkpt>
      <trkpt lat="47.65953" lon="-3.2065">
        <ele>5</ele>
        <time>2025-07-15T13:22:17.000Z</time>
      </trkpt>
      <trkpt lat="47.65882" lon="-3.20602">
        <ele>4</ele>
        <time>2025-07-15T13:23:46.000Z</time>
      </trkpt>
      <trkpt lat="47.65825" lon="-3.20623">
        <ele>3</ele>
        <time>2025-07-15T13:24:53.000Z</time>
      </trkpt>
      <trkpt lat="47.6569" lon="-3.20714">
        <ele>3</ele>
        <time>2025-07-15T13:27:43.000Z</time>
      </trkpt>
      <trkpt lat="47.6566" lon="-3.20731">
        <ele>3</ele>
        <time>2025-07-15T13:28:19.000Z</time>
      </trkpt>
      <trkpt lat="47.6558" lon="-3.2071">
        <ele>2</ele>
        <time>2025-07-15T13:29:52.000Z</time>
      </trkpt>
      <trkpt lat="47.6555" lon="-3.2068">
        <ele>3</ele>
        <time>2025-07-15T13:30:44.000Z</time>
      </trkpt>
      <trkpt lat="47.65536" lon="-3.20622">
        <ele>3</ele>
        <time>2025-07-15T13:31:31.000Z</time>
      </trkpt>
      <trkpt lat="47.65566" lon="-3.20523">
        <ele>4</ele>
        <time>2025-07-15T13:33:05.000Z</time>
      </trkpt>
      <trkpt lat="47.65518" lon="-3.20503">
        <ele>3</ele>
        <time>2025-07-15T13:34:02.000Z</time>
      </trkpt>
      <trkpt lat="47.65344" lon="-3.20489">
        <ele>3</ele>
        <time>2025-07-15T13:37:22.000Z</time>
      </trkpt>
      <trkpt lat="47.65277" lon="-3.20479">
        <ele>4</ele>
        <time>2025-07-15T13:38:49.000Z</time>
      </trkpt>
      <trkpt lat="47.65282" lon="-3.20425">
        <ele>4</ele>
        <time>2025-07-15T13:39:31.000Z</time>
      </trkpt>
      <trkpt lat="47.65213" lon="-3.20428">
        <ele>5</ele>
        <time>2025-07-15T13:41:00.000Z</time>
      </trkpt>
      <trkpt lat="47.65092" lon="-3.2036">
        <ele>8</ele>
        <time>2025-07-15T13:43:59.000Z</time>
      </trkpt>
      <trkpt lat="47.65028" lon="-3.20418">
        <ele>9</ele>
        <time>2025-07-15T13:45:35.000Z</time>
      </trkpt>
      <trkpt lat="47.64904" lon="-3.20387">
        <ele>5</ele>
        <time>2025-07-15T13:47:59.000Z</time>
      </trkpt>
      <trkpt lat="47.64891" lon="-3.20237">
        <ele>7</ele>
        <time>2025-07-15T13:50:17.000Z</time>
      </trkpt>
      <trkpt lat="47.64884" lon="-3.20193">
        <ele>7</ele>
        <time>2025-07-15T13:50:52.000Z</time>
      </trkpt>
      <trkpt lat="47.64783" lon="-3.20278">
        <ele>10</ele>
        <time>2025-07-15T13:53:36.000Z</time>
      </trkpt>
      <trkpt lat="47.64664" lon="-3.20335">
        <ele>10</ele>
        <time>2025-07-15T13:55:59.000Z</time>
      </trkpt>
      <trkpt lat="47.64597" lon="-3.20376">
        <ele>9</ele>
        <time>2025-07-15T13:57:22.000Z</time>
      </trkpt>
      <trkpt lat="47.64489" lon="-3.20559">
        <ele>8</ele>
        <time>2025-07-15T14:00:30.000Z</time>
      </trkpt>
      <trkpt lat="47.64413" lon="-3.20699">
        <ele>6</ele>
        <time>2025-07-15T14:02:48.000Z</time>
      </trkpt>
      <trkpt lat="47.6434" lon="-3.20641">
        <ele>7</ele>
        <time>2025-07-15T14:04:33.000Z</time>
      </trkpt>
      <trkpt lat="47.64189" lon="-3.20464">
        <ele>6</ele>
        <time>2025-07-15T14:08:13.000Z</time>
      </trkpt>
      <trkpt lat="47.64065" lon="-3.20352">
        <ele>5</ele>
        <time>2025-07-15T14:10:59.000Z</time>
      </trkpt>
      <trkpt lat="47.63987" lon="-3.20294">
        <ele>5</ele>
        <time>2025-07-15T14:12:39.000Z</time>
      </trkpt>
      <trkpt lat="47.63944" lon="-3.20294">
        <ele>5</ele>
        <time>2025-07-15T14:13:29.000Z</time>
      </trkpt>
      <trkpt lat="47.6385" lon="-3.20229">
        <ele>6</ele>
        <time>2025-07-15T14:15:38.000Z</time>
      </trkpt>
      <trkpt lat="47.63774" lon="-3.20284">
        <ele>6</ele>
        <time>2025-07-15T14:17:14.000Z</time>
      </trkpt>
      <trkpt lat="47.6373" lon="-3.20338">
        <ele>6</ele>
        <time>2025-07-15T14:18:19.000Z</time>
      </trkpt>
      <trkpt lat="47.63601" lon="-3.20233">
        <ele>6</ele>
        <time>2025-07-15T14:21:08.000Z</time>
      </trkpt>
      <trkpt lat="47.63408" lon="-3.20083">
        <ele>6</ele>
        <time>2025-07-15T14:25:17.000Z</time>
      </trkpt>
      <trkpt lat="47.63372" lon="-3.20029">
        <ele>6</ele>
        <time>2025-07-15T14:26:16.000Z</time>
      </trkpt>
      <trkpt lat="47.63333" lon="-3.20036">
        <ele>7</ele>
        <time>2025-07-15T14:27:11.000Z</time>
      </trkpt>
      <trkpt lat="47.63275" lon="-3.19961">
        <ele>8</ele>
        <time>2025-07-15T14:28:49.000Z</time>
      </trkpt>
      <trkpt lat="47.63154" lon="-3.19844">
        <ele>7</ele>
        <time>2025-07-15T14:31:35.000Z</time>
      </trkpt>
      <trkpt lat="47.63053" lon="-3.19786">
        <ele>8</ele>
        <time>2025-07-15T14:33:49.000Z</time>
      </trkpt>
      <trkpt lat="47.62939" lon="-3.19684">
        <ele>9</ele>
        <time>2025-07-15T14:36:32.000Z</time>
      </trkpt>
      <trkpt lat="47.62865" lon="-3.19661">
        <ele>7</ele>
        <time>2025-07-15T14:37:58.000Z</time>
      </trkpt>
      <trkpt lat="47.62458" lon="-3.1967">
        <ele>6</ele>
        <time>2025-07-15T14:45:45.000Z</time>
      </trkpt>
      <trkpt lat="47.62417" lon="-3.19642">
        <ele>7</ele>
        <time>2025-07-15T14:46:47.000Z</time>
      </trkpt>
      <trkpt lat="47.62314" lon="-3.19401">
        <ele>7</ele>
        <time>2025-07-15T14:50:28.000Z</time>
      </trkpt>
      <trkpt lat="47.62251" lon="-3.19257">
        <ele>7</ele>
        <time>2025-07-15T14:52:40.000Z</time>
      </trkpt>
      <trkpt lat="47.6229" lon="-3.18937">
        <ele>9</ele>
        <time>2025-07-15T14:57:11.000Z</time>
      </trkpt>
      <trkpt lat="47.62246" lon="-3.18824">
        <ele>10</ele>
        <time>2025-07-15T14:59:02.000Z</time>
      </trkpt>
      <trkpt lat="47.62246" lon="-3.18711">
        <ele>10</ele>
        <time>2025-07-15T15:00:29.000Z</time>
      </trkpt>
      <trkpt lat="47.62306" lon="-3.18354">
        <ele>10</ele>
        <time>2025-07-15T15:05:13.000Z</time>
      </trkpt>
      <trkpt lat="47.62281" lon="-3.18251">
        <ele>9</ele>
        <time>2025-07-15T15:06:38.000Z</time>
      </trkpt>
      <trkpt lat="47.62284" lon="-3.1809">
        <ele>9</ele>
        <time>2025-07-15T15:08:42.000Z</time>
      </trkpt>
      <trkpt lat="47.62336" lon="-3.18026">
        <ele>10</ele>
        <time>2025-07-15T15:10:10.000Z</time>
      </trkpt>
      <trkpt lat="47.62339" lon="-3.17978">
        <ele>10</ele>
        <time>2025-07-15T15:10:47.000Z</time>
      </trkpt>
      <trkpt lat="47.62297" lon="-3.17983">
        <ele>10</ele>
        <time>2025-07-15T15:11:35.000Z</time>
      </trkpt>
      <trkpt lat="47.62192" lon="-3.18004">
        <ele>9</ele>
        <time>2025-07-15T15:13:36.000Z</time>
      </trkpt>
      <trkpt lat="47.62123" lon="-3.17937">
        <ele>8</ele>
        <time>2025-07-15T15:15:11.000Z</time>
      </trkpt>
      <trkpt lat="47.62071" lon="-3.17854">
        <ele>7</ele>
        <time>2025-07-15T15:16:38.000Z</time>
      </trkpt>
      <trkpt lat="47.62036" lon="-3.17834">
        <ele>6</ele>
        <time>2025-07-15T15:17:22.000Z</time>
      </trkpt>
      <trkpt lat="47.62052" lon="-3.17753">
        <ele>7</ele>
        <time>2025-07-15T15:18:38.000Z</time>
      </trkpt>
      <trkpt lat="47.62063" lon="-3.17696">
        <ele>6</ele>
        <time>2025-07-15T15:19:24.000Z</time>
      </trkpt>
      <trkpt lat="47.62032" lon="-3.17569">
        <ele>6</ele>
        <time>2025-07-15T15:21:08.000Z</time>
      </trkpt>
      <trkpt lat="47.62011" lon="-3.17533">
        <ele>7</ele>
        <time>2025-07-15T15:21:55.000Z</time>
      </trkpt>
      <trkpt lat="47.61941" lon="-3.17242">
        <ele>10</ele>
        <time>2025-07-15T15:26:25.000Z</time>
      </trkpt>
      <trkpt lat="47.61905" lon="-3.17247">
        <ele>10</ele>
        <time>2025-07-15T15:27:06.000Z</time>
      </trkpt>
      <trkpt lat="47.61883" lon="-3.17204">
        <ele>10</ele>
        <time>2025-07-15T15:27:48.000Z</time>
      </trkpt>
      <trkpt lat="47.61778" lon="-3.17237">
        <ele>13</ele>
        <time>2025-07-15T15:30:21.000Z</time>
      </trkpt>
      <trkpt lat="47.61723" lon="-3.1733">
        <ele>13</ele>
        <time>2025-07-15T15:31:56.000Z</time>
      </trkpt>
      <trkpt lat="47.61656" lon="-3.17395">
        <ele>9</ele>
        <time>2025-07-15T15:33:28.000Z</time>
      </trkpt>
      <trkpt lat="47.61615" lon="-3.17397">
        <ele>7</ele>
        <time>2025-07-15T15:34:14.000Z</time>
      </trkpt>
      <trkpt lat="47.6158" lon="-3.17242">
        <ele>7</ele>
        <time>2025-07-15T15:36:21.000Z</time>
      </trkpt>
      <trkpt lat="47.61533" lon="-3.17247">
        <ele>7</ele>
        <time>2025-07-15T15:37:15.000Z</time>
      </trkpt>
      <trkpt lat="47.61519" lon="-3.17207">
        <ele>7</ele>
        <time>2025-07-15T15:37:50.000Z</time>
      </trkpt>
      <trkpt lat="47.61488" lon="-3.17066">
        <ele>7</ele>
        <time>2025-07-15T15:39:44.000Z</time>
      </trkpt>
      <trkpt lat="47.61479" lon="-3.1699">
        <ele>6</ele>
        <time>2025-07-15T15:40:44.000Z</time>
      </trkpt>
      <trkpt lat="47.61491" lon="-3.16868">
        <ele>7</ele>
        <time>2025-07-15T15:42:29.000Z</time>
      </trkpt>
      <trkpt lat="47.61504" lon="-3.16727">
        <ele>10</ele>
        <time>2025-07-15T15:44:50.000Z</time>
      </trkpt>
      <trkpt lat="47.61509" lon="-3.16639">
        <ele>10</ele>
        <time>2025-07-15T15:45:58.000Z</time>
      </trkpt>
      <trkpt lat="47.61429" lon="-3.16686">
        <ele>9</ele>
        <time>2025-07-15T15:47:37.000Z</time>
      </trkpt>
      <trkpt lat="47.61437" lon="-3.16624">
        <ele>10</ele>
        <time>2025-07-15T15:48:36.000Z</time>
      </trkpt>
      <trkpt lat="47.61469" lon="-3.16548">
        <ele>10</ele>
        <time>2025-07-15T15:49:46.000Z</time>
      </trkpt>
      <trkpt lat="47.61479" lon="-3.16467">
        <ele>11</ele>
        <time>2025-07-15T15:51:00.000Z</time>
      </trkpt>
      <trkpt lat="47.61516" lon="-3.16407">
        <ele>11</ele>
        <time>2025-07-15T15:52:03.000Z</time>
      </trkpt>
      <trkpt lat="47.61519" lon="-3.16333">
        <ele>10</ele>
        <time>2025-07-15T15:53:00.000Z</time>
      </trkpt>
      <trkpt lat="47.61528" lon="-3.16235">
        <ele>11</ele>
        <time>2025-07-15T15:54:27.000Z</time>
      </trkpt>
      <trkpt lat="47.61506" lon="-3.16119">
        <ele>9</ele>
        <time>2025-07-15T15:56:00.000Z</time>
      </trkpt>
      <trkpt lat="47.61533" lon="-3.16031">
        <ele>9</ele>
        <time>2025-07-15T15:57:15.000Z</time>
      </trkpt>
      <trkpt lat="47.61541" lon="-3.15933">
        <ele>9</ele>
        <time>2025-07-15T15:58:31.000Z</time>
      </trkpt>
      <trkpt lat="47.61594" lon="-3.15921">
        <ele>9</ele>
        <time>2025-07-15T15:59:32.000Z</time>
      </trkpt>
      <trkpt lat="47.61601" lon="-3.1585">
        <ele>11</ele>
        <time>2025-07-15T16:00:48.000Z</time>
      </trkpt>
      <trkpt lat="47.61612" lon="-3.15805">
        <ele>11</ele>
        <time>2025-07-15T16:01:24.000Z</time>
      </trkpt>
      <trkpt lat="47.61568" lon="-3.156">
        <ele>11</ele>
        <time>2025-07-15T16:04:10.000Z</time>
      </trkpt>
      <trkpt lat="47.61499" lon="-3.15241">
        <ele>11</ele>
        <time>2025-07-15T16:08:58.000Z</time>
      </trkpt>
      <trkpt lat="47.61412" lon="-3.14849">
        <ele>11</ele>
        <time>2025-07-15T16:14:17.000Z</time>
      </trkpt>
      <trkpt lat="47.61387" lon="-3.14749">
        <ele>11</ele>
        <time>2025-07-15T16:15:40.000Z</time>
      </trkpt>
      <trkpt lat="47.61387" lon="-3.14651">
        <ele>12</ele>
        <time>2025-07-15T16:17:06.000Z</time>
      </trkpt>
      <trkpt lat="47.6128" lon="-3.14735">
        <ele>13</ele>
        <time>2025-07-15T16:19:34.000Z</time>
      </trkpt>
      <trkpt lat="47.61239" lon="-3.14675">
        <ele>10</ele>
        <time>2025-07-15T16:20:41.000Z</time>
      </trkpt>
      <trkpt lat="47.61205" lon="-3.14573">
        <ele>10</ele>
        <time>2025-07-15T16:22:09.000Z</time>
      </trkpt>
      <trkpt lat="47.61189" lon="-3.14536">
        <ele>10</ele>
        <time>2025-07-15T16:22:42.000Z</time>
      </trkpt>
      <trkpt lat="47.61113" lon="-3.14386">
        <ele>10</ele>
        <time>2025-07-15T16:25:08.000Z</time>
      </trkpt>
      <trkpt lat="47.61017" lon="-3.14152">
        <ele>11</ele>
        <time>2025-07-15T16:28:50.000Z</time>
      </trkpt>
      <trkpt lat="47.60922" lon="-3.13939">
        <ele>12</ele>
        <time>2025-07-15T16:32:17.000Z</time>
      </trkpt>
      <trkpt lat="47.6086" lon="-3.13953">
        <ele>13</ele>
        <time>2025-07-15T16:33:39.000Z</time>
      </trkpt>
      <trkpt lat="47.60835" lon="-3.13927">
        <ele>12</ele>
        <time>2025-07-15T16:34:15.000Z</time>
      </trkpt>
      <trkpt lat="47.60753" lon="-3.13903">
        <ele>11</ele>
        <time>2025-07-15T16:35:50.000Z</time>
      </trkpt>
      <trkpt lat="47.60756" lon="-3.13863">
        <ele>11</ele>
        <time>2025-07-15T16:36:21.000Z</time>
      </trkpt>
      <trkpt lat="47.60799" lon="-3.13721">
        <ele>14</ele>
        <time>2025-07-15T16:38:52.000Z</time>
      </trkpt>
      <trkpt lat="47.60787" lon="-3.13698">
        <ele>14</ele>
        <time>2025-07-15T16:39:15.000Z</time>
      </trkpt>
      <trkpt lat="47.60742" lon="-3.13692">
        <ele>13</ele>
        <time>2025-07-15T16:40:06.000Z</time>
      </trkpt>
      <trkpt lat="47.60748" lon="-3.13644">
        <ele>15</ele>
        <time>2025-07-15T16:41:04.000Z</time>
      </trkpt>
      <trkpt lat="47.60716" lon="-3.13616">
        <ele>16</ele>
        <time>2025-07-15T16:41:56.000Z</time>
      </trkpt>
      <trkpt lat="47.60735" lon="-3.13526">
        <ele>18</ele>
        <time>2025-07-15T16:43:29.000Z</time>
      </trkpt>
      <trkpt lat="47.60703" lon="-3.1354">
        <ele>17</ele>
        <time>2025-07-15T16:44:08.000Z</time>
      </trkpt>
      <trkpt lat="47.60669" lon="-3.13574">
        <ele>14</ele>
        <time>2025-07-15T16:44:55.000Z</time>
      </trkpt>
      <trkpt lat="47.60645" lon="-3.13536">
        <ele>15</ele>
        <time>2025-07-15T16:45:46.000Z</time>
      </trkpt>
      <trkpt lat="47.60621" lon="-3.13558">
        <ele>12</ele>
        <time>2025-07-15T16:46:19.000Z</time>
      </trkpt>
      <trkpt lat="47.60572" lon="-3.13552">
        <ele>10</ele>
        <time>2025-07-15T16:47:15.000Z</time>
      </trkpt>
      <trkpt lat="47.60526" lon="-3.13522">
        <ele>8</ele>
        <time>2025-07-15T16:48:12.000Z</time>
      </trkpt>
      <trkpt lat="47.6049" lon="-3.1349">
        <ele>5</ele>
        <time>2025-07-15T16:49:00.000Z</time>
      </trkpt>
      <trkpt lat="47.60474" lon="-3.13459">
        <ele>4</ele>
        <time>2025-07-15T16:49:29.000Z</time>
      </trkpt>
      <trkpt lat="47.60471" lon="-3.13357">
        <ele>5</ele>
        <time>2025-07-15T16:50:58.000Z</time>
      </trkpt>
      <trkpt lat="47.60461" lon="-3.13327">
        <ele>6</ele>
        <time>2025-07-15T16:51:35.000Z</time>
      </trkpt>
      <trkpt lat="47.60421" lon="-3.13275">
        <ele>8</ele>
        <time>2025-07-15T16:52:56.000Z</time>
      </trkpt>
      <trkpt lat="47.60382" lon="-3.13223">
        <ele>10</ele>
        <time>2025-07-15T16:54:17.000Z</time>
      </trkpt>
      <trkpt lat="47.60331" lon="-3.13215">
        <ele>10</ele>
        <time>2025-07-15T16:55:16.000Z</time>
      </trkpt>
      <trkpt lat="47.60298" lon="-3.13211">
        <ele>10</ele>
        <time>2025-07-15T16:55:54.000Z</time>
      </trkpt>
      <trkpt lat="47.60274" lon="-3.13189">
        <ele>11</ele>
        <time>2025-07-15T16:56:37.000Z</time>
      </trkpt>
      <trkpt lat="47.60251" lon="-3.13157">
        <ele>12</ele>
        <time>2025-07-15T16:57:23.000Z</time>
      </trkpt>
      <trkpt lat="47.60244" lon="-3.13107">
        <ele>14</ele>
        <time>2025-07-15T16:58:23.000Z</time>
      </trkpt>
      <trkpt lat="47.60219" lon="-3.13061">
        <ele>14</ele>
        <time>2025-07-15T16:59:09.000Z</time>
      </trkpt>
      <trkpt lat="47.60189" lon="-3.13013">
        <ele>13</ele>
        <time>2025-07-15T16:59:59.000Z</time>
      </trkpt>
      <trkpt lat="47.60188" lon="-3.12961">
        <ele>14</ele>
        <time>2025-07-15T17:00:50.000Z</time>
      </trkpt>
      <trkpt lat="47.60154" lon="-3.12935">
        <ele>15</ele>
        <time>2025-07-15T17:01:44.000Z</time>
      </trkpt>
      <trkpt lat="47.60154" lon="-3.12871">
        <ele>16</ele>
        <time>2025-07-15T17:02:44.000Z</time>
      </trkpt>
      <trkpt lat="47.60163" lon="-3.12815">
        <ele>17</ele>
        <time>2025-07-15T17:03:39.000Z</time>
      </trkpt>
      <trkpt lat="47.60171" lon="-3.12781">
        <ele>18</ele>
        <time>2025-07-15T17:04:17.000Z</time>
      </trkpt>
      <trkpt lat="47.6017" lon="-3.12727">
        <ele>19</ele>
        <time>2025-07-15T17:05:09.000Z</time>
      </trkpt>
      <trkpt lat="47.60171" lon="-3.12631">
        <ele>20</ele>
        <time>2025-07-15T17:06:34.000Z</time>
      </trkpt>
      <trkpt lat="47.60142" lon="-3.12631">
        <ele>18</ele>
        <time>2025-07-15T17:07:06.000Z</time>
      </trkpt>
      <trkpt lat="47.60126" lon="-3.12577">
        <ele>17</ele>
        <time>2025-07-15T17:07:52.000Z</time>
      </trkpt>
      <trkpt lat="47.60118" lon="-3.12533">
        <ele>16</ele>
        <time>2025-07-15T17:08:27.000Z</time>
      </trkpt>
      <trkpt lat="47.60118" lon="-3.12473">
        <ele>15</ele>
        <time>2025-07-15T17:09:13.000Z</time>
      </trkpt>
      <trkpt lat="47.60102" lon="-3.12395">
        <ele>14</ele>
        <time>2025-07-15T17:10:16.000Z</time>
      </trkpt>
      <trkpt lat="47.60195" lon="-3.12288">
        <ele>18</ele>
        <time>2025-07-15T17:13:11.000Z</time>
      </trkpt>
      <trkpt lat="47.60161" lon="-3.12219">
        <ele>18</ele>
        <time>2025-07-15T17:14:17.000Z</time>
      </trkpt>
      <trkpt lat="47.60122" lon="-3.12143">
        <ele>19</ele>
        <time>2025-07-15T17:15:41.000Z</time>
      </trkpt>
      <trkpt lat="47.60084" lon="-3.12097">
        <ele>20</ele>
        <time>2025-07-15T17:16:47.000Z</time>
      </trkpt>
      <trkpt lat="47.60013" lon="-3.12004">
        <ele>21</ele>
        <time>2025-07-15T17:18:46.000Z</time>
      </trkpt>
      <trkpt lat="47.5995" lon="-3.11926">
        <ele>20</ele>
        <time>2025-07-15T17:20:20.000Z</time>
      </trkpt>
      <trkpt lat="47.60006" lon="-3.11865">
        <ele>22</ele>
        <time>2025-07-15T17:22:01.000Z</time>
      </trkpt>
      <trkpt lat="47.60077" lon="-3.11807">
        <ele>25</ele>
        <time>2025-07-15T17:24:05.000Z</time>
      </trkpt>
      <trkpt lat="47.60087" lon="-3.11763">
        <ele>26</ele>
        <time>2025-07-15T17:24:51.000Z</time>
      </trkpt>
      <trkpt lat="47.60094" lon="-3.11686">
        <ele>25</ele>
        <time>2025-07-15T17:25:51.000Z</time>
      </trkpt>
      <trkpt lat="47.60118" lon="-3.11678">
        <ele>25</ele>
        <time>2025-07-15T17:26:19.000Z</time>
      </trkpt>
      <trkpt lat="47.60136" lon="-3.11626">
        <ele>24</ele>
        <time>2025-07-15T17:27:04.000Z</time>
      </trkpt>
      <trkpt lat="47.60154" lon="-3.11599">
        <ele>24</ele>
        <time>2025-07-15T17:27:33.000Z</time>
      </trkpt>
      <trkpt lat="47.6024" lon="-3.1163">
        <ele>25</ele>
        <time>2025-07-15T17:29:24.000Z</time>
      </trkpt>
      <trkpt lat="47.60333" lon="-3.11652">
        <ele>27</ele>
        <time>2025-07-15T17:31:33.000Z</time>
      </trkpt>
      <trkpt lat="47.60376" lon="-3.11636">
        <ele>27</ele>
        <time>2025-07-15T17:32:24.000Z</time>
      </trkpt>
      <trkpt lat="47.60403" lon="-3.11624">
        <ele>26</ele>
        <time>2025-07-15T17:32:56.000Z</time>
      </trkpt>
      <trkpt lat="47.604" lon="-3.11531">
        <ele>25</ele>
        <time>2025-07-15T17:34:08.000Z</time>
      </trkpt>
      <trkpt lat="47.60394" lon="-3.11479">
        <ele>26</ele>
        <time>2025-07-15T17:34:59.000Z</time>
      </trkpt>
      <trkpt lat="47.60398" lon="-3.1133">
        <ele>24</ele>
        <time>2025-07-15T17:36:54.000Z</time>
      </trkpt>
      <trkpt lat="47.60364" lon="-3.11257">
        <ele>24</ele>
        <time>2025-07-15T17:38:02.000Z</time>
      </trkpt>
      <trkpt lat="47.60332" lon="-3.11223">
        <ele>23</ele>
        <time>2025-07-15T17:38:47.000Z</time>
      </trkpt>
      <trkpt lat="47.60303" lon="-3.11159">
        <ele>20</ele>
        <time>2025-07-15T17:39:47.000Z</time>
      </trkpt>
      <trkpt lat="47.60324" lon="-3.11082">
        <ele>21</ele>
        <time>2025-07-15T17:41:02.000Z</time>
      </trkpt>
      <trkpt lat="47.60281" lon="-3.10941">
        <ele>21</ele>
        <time>2025-07-15T17:43:01.000Z</time>
      </trkpt>
      <trkpt lat="47.6025" lon="-3.10909">
        <ele>21</ele>
        <time>2025-07-15T17:43:44.000Z</time>
      </trkpt>
      <trkpt lat="47.60226" lon="-3.10824">
        <ele>21</ele>
        <time>2025-07-15T17:44:56.000Z</time>
      </trkpt>
      <trkpt lat="47.60202" lon="-3.10731">
        <ele>21</ele>
        <time>2025-07-15T17:46:13.000Z</time>
      </trkpt>
      <trkpt lat="47.60179" lon="-3.1068">
        <ele>20</ele>
        <time>2025-07-15T17:47:01.000Z</time>
      </trkpt>
      <trkpt lat="47.60151" lon="-3.10658">
        <ele>20</ele>
        <time>2025-07-15T17:47:37.000Z</time>
      </trkpt>
      <trkpt lat="47.60113" lon="-3.10554">
        <ele>20</ele>
        <time>2025-07-15T17:49:08.000Z</time>
      </trkpt>
      <trkpt lat="47.60142" lon="-3.10497">
        <ele>21</ele>
        <time>2025-07-15T17:50:13.000Z</time>
      </trkpt>
      <trkpt lat="47.60162" lon="-3.10457">
        <ele>23</ele>
        <time>2025-07-15T17:51:12.000Z</time>
      </trkpt>
      <trkpt lat="47.60179" lon="-3.10411">
        <ele>25</ele>
        <time>2025-07-15T17:52:13.000Z</time>
      </trkpt>
      <trkpt lat="47.60193" lon="-3.10352">
        <ele>25</ele>
        <time>2025-07-15T17:53:02.000Z</time>
      </trkpt>
      <trkpt lat="47.60203" lon="-3.10318">
        <ele>24</ele>
        <time>2025-07-15T17:53:31.000Z</time>
      </trkpt>
      <trkpt lat="47.60164" lon="-3.1033">
        <ele>24</ele>
        <time>2025-07-15T17:54:16.000Z</time>
      </trkpt>
      <trkpt lat="47.60159" lon="-3.10285">
        <ele>23</ele>
        <time>2025-07-15T17:54:51.000Z</time>
      </trkpt>
      <trkpt lat="47.60152" lon="-3.10251">
        <ele>22</ele>
        <time>2025-07-15T17:55:18.000Z</time>
      </trkpt>
      <trkpt lat="47.60162" lon="-3.1033">
        <ele>25</ele>
        <time>2025-07-15T17:56:51.000Z</time>
      </trkpt>
      <trkpt lat="47.60084" lon="-3.10347">
        <ele>24</ele>
        <time>2025-07-15T17:58:21.000Z</time>
      </trkpt>
      <trkpt lat="47.60017" lon="-3.10354">
        <ele>23</ele>
        <time>2025-07-15T17:59:38.000Z</time>
      </trkpt>
      <trkpt lat="47.60006" lon="-3.10055">
        <ele>19</ele>
        <time>2025-07-15T18:03:29.000Z</time>
      </trkpt>
      <trkpt lat="47.59929" lon="-3.09998">
        <ele>19</ele>
        <time>2025-07-15T18:05:07.000Z</time>
      </trkpt>
      <trkpt lat="47.59847" lon="-3.10035">
        <ele>18</ele>
        <time>2025-07-15T18:06:45.000Z</time>
      </trkpt>
      <trkpt lat="47.59879" lon="-3.09928">
        <ele>19</ele>
        <time>2025-07-15T18:08:26.000Z</time>
      </trkpt>
      <trkpt lat="47.60026" lon="-3.09537">
        <ele>18</ele>
        <time>2025-07-15T18:14:11.000Z</time>
      </trkpt>
      <trkpt lat="47.5996" lon="-3.09442">
        <ele>18</ele>
        <time>2025-07-15T18:15:56.000Z</time>
      </trkpt>
      <trkpt lat="47.59979" lon="-3.09326">
        <ele>19</ele>
        <time>2025-07-15T18:17:39.000Z</time>
      </trkpt>
      <trkpt lat="47.60013" lon="-3.09086">
        <ele>16</ele>
        <time>2025-07-15T18:20:48.000Z</time>
      </trkpt>
      <trkpt lat="47.60064" lon="-3.08919">
        <ele>17</ele>
        <time>2025-07-15T18:23:20.000Z</time>
      </trkpt>
      <trkpt lat="47.60132" lon="-3.08752">
        <ele>17</ele>
        <time>2025-07-15T18:25:51.000Z</time>
      </trkpt>
      <trkpt lat="47.60136" lon="-3.0862">
        <ele>17</ele>
        <time>2025-07-15T18:27:33.000Z</time>
      </trkpt>
      <trkpt lat="47.60141" lon="-3.08543">
        <ele>17</ele>
        <time>2025-07-15T18:28:33.000Z</time>
      </trkpt>
      <trkpt lat="47.60183" lon="-3.08322">
        <ele>19</ele>
        <time>2025-07-15T18:31:51.000Z</time>
      </trkpt>
      <trkpt lat="47.60226" lon="-3.08105">
        <ele>21</ele>
        <time>2025-07-15T18:35:06.000Z</time>
      </trkpt>
      <trkpt lat="47.60204" lon="-3.08054">
        <ele>21</ele>
        <time>2025-07-15T18:35:52.000Z</time>
      </trkpt>
      <trkpt lat="47.60213" lon="-3.07903">
        <ele>19</ele>
        <time>2025-07-15T18:37:49.000Z</time>
      </trkpt>
      <trkpt lat="47.6023" lon="-3.07777">
        <ele>16</ele>
        <time>2025-07-15T18:39:28.000Z</time>
      </trkpt>
      <trkpt lat="47.60253" lon="-3.07632">
        <ele>15</ele>
        <time>2025-07-15T18:41:23.000Z</time>
      </trkpt>
      <trkpt lat="47.60274" lon="-3.07456">
        <ele>16</ele>
        <time>2025-07-15T18:43:52.000Z</time>
      </trkpt>
      <trkpt lat="47.60287" lon="-3.07377">
        <ele>16</ele>
        <time>2025-07-15T18:44:55.000Z</time>
      </trkpt>
      <trkpt lat="47.60296" lon="-3.07093">
        <ele>18</ele>
        <time>2025-07-15T18:48:55.000Z</time>
      </trkpt>
      <trkpt lat="47.60086" lon="-3.07156">
        <ele>16</ele>
        <time>2025-07-15T18:53:00.000Z</time>
      </trkpt>
      <trkpt lat="47.5991" lon="-3.07253">
        <ele>17</ele>
        <time>2025-07-15T18:56:46.000Z</time>
      </trkpt>
      <trkpt lat="47.59907" lon="-3.07208">
        <ele>16</ele>
        <time>2025-07-15T18:57:21.000Z</time>
      </trkpt>
      <trkpt lat="47.59842" lon="-3.07214">
        <ele>16</ele>
        <time>2025-07-15T18:58:36.000Z</time>
      </trkpt>
      <trkpt lat="47.59759" lon="-3.07212">
        <ele>17</ele>
        <time>2025-07-15T19:00:21.000Z</time>
      </trkpt>
      <trkpt lat="47.59656" lon="-3.07197">
        <ele>17</ele>
        <time>2025-07-15T19:02:19.000Z</time>
      </trkpt>
      <trkpt lat="47.59589" lon="-3.072">
        <ele>18</ele>
        <time>2025-07-15T19:03:47.000Z</time>
      </trkpt>
      <trkpt lat="47.59594" lon="-3.07094">
        <ele>17</ele>
        <time>2025-07-15T19:05:10.000Z</time>
      </trkpt>
      <trkpt lat="47.5962" lon="-3.06907">
        <ele>19</ele>
        <time>2025-07-15T19:07:58.000Z</time>
      </trkpt>
      <trkpt lat="47.59627" lon="-3.06815">
        <ele>22</ele>
        <time>2025-07-15T19:09:40.000Z</time>
      </trkpt>
      <trkpt lat="47.5963" lon="-3.06777">
        <ele>22</ele>
        <time>2025-07-15T19:10:10.000Z</time>
      </trkpt>
      <trkpt lat="47.59672" lon="-3.06694">
        <ele>21</ele>
        <time>2025-07-15T19:11:30.000Z</time>
      </trkpt>
      <trkpt lat="47.59724" lon="-3.06543">
        <ele>17</ele>
        <time>2025-07-15T19:13:41.000Z</time>
      </trkpt>
      <trkpt lat="47.5975" lon="-3.06463">
        <ele>17</ele>
        <time>2025-07-15T19:14:50.000Z</time>
      </trkpt>
      <trkpt lat="47.5972" lon="-3.06442">
        <ele>18</ele>
        <time>2025-07-15T19:15:38.000Z</time>
      </trkpt>
      <trkpt lat="47.59656" lon="-3.06469">
        <ele>19</ele>
        <time>2025-07-15T19:17:04.000Z</time>
      </trkpt>
      <trkpt lat="47.59692" lon="-3.06353">
        <ele>19</ele>
        <time>2025-07-15T19:18:42.000Z</time>
      </trkpt>
      <trkpt lat="47.59744" lon="-3.06238">
        <ele>21</ele>
        <time>2025-07-15T19:20:50.000Z</time>
      </trkpt>
      <trkpt lat="47.59778" lon="-3.06178">
        <ele>22</ele>
        <time>2025-07-15T19:22:00.000Z</time>
      </trkpt>
      <trkpt lat="47.59822" lon="-3.06152">
        <ele>23</ele>
        <time>2025-07-15T19:23:05.000Z</time>
      </trkpt>
      <trkpt lat="47.59892" lon="-3.05977">
        <ele>19</ele>
        <time>2025-07-15T19:25:42.000Z</time>
      </trkpt>
      <trkpt lat="47.59886" lon="-3.05891">
        <ele>18</ele>
        <time>2025-07-15T19:26:49.000Z</time>
      </trkpt>
      <trkpt lat="47.5997" lon="-3.05758">
        <ele>13</ele>
        <time>2025-07-15T19:29:10.000Z</time>
      </trkpt>
      <trkpt lat="47.59998" lon="-3.05716">
        <ele>14</ele>
        <time>2025-07-15T19:30:05.000Z</time>
      </trkpt>
      <trkpt lat="47.60092" lon="-3.0586">
        <ele>14</ele>
        <time>2025-07-15T19:32:40.000Z</time>
      </trkpt>
      <trkpt lat="47.60146" lon="-3.05832">
        <ele>16</ele>
        <time>2025-07-15T19:34:07.000Z</time>
      </trkpt>
      <trkpt lat="47.6029" lon="-3.05895">
        <ele>20</ele>
        <time>2025-07-15T19:37:40.000Z</time>
      </trkpt>
      <trkpt lat="47.60367" lon="-3.05906">
        <ele>23</ele>
        <time>2025-07-15T19:39:40.000Z</time>
      </trkpt>
      <trkpt lat="47.60457" lon="-3.05872">
        <ele>24</ele>
        <time>2025-07-15T19:41:36.000Z</time>
      </trkpt>
      <trkpt lat="47.6046" lon="-3.05797">
        <ele>26</ele>
        <time>2025-07-15T19:42:54.000Z</time>
      </trkpt>
      <trkpt lat="47.60388" lon="-3.05687">
        <ele>29</ele>
        <time>2025-07-15T19:45:23.000Z</time>
      </trkpt>
      <trkpt lat="47.60393" lon="-3.05628">
        <ele>30</ele>
        <time>2025-07-15T19:46:19.000Z</time>
      </trkpt>
      <trkpt lat="47.60423" lon="-3.05602">
        <ele>29</ele>
        <time>2025-07-15T19:46:59.000Z</time>
      </trkpt>
      <trkpt lat="47.60454" lon="-3.05549">
        <ele>27</ele>
        <time>2025-07-15T19:47:54.000Z</time>
      </trkpt>
      <trkpt lat="47.60463" lon="-3.05443">
        <ele>24</ele>
        <time>2025-07-15T19:49:17.000Z</time>
      </trkpt>
      <trkpt lat="47.60467" lon="-3.05364">
        <ele>21</ele>
        <time>2025-07-15T19:50:18.000Z</time>
      </trkpt>
      <trkpt lat="47.60541" lon="-3.054">
        <ele>23</ele>
        <time>2025-07-15T19:52:08.000Z</time>
      </trkpt>
      <trkpt lat="47.60594" lon="-3.05392">
        <ele>22</ele>
        <time>2025-07-15T19:53:09.000Z</time>
      </trkpt>
      <trkpt lat="47.60711" lon="-3.05329">
        <ele>22</ele>
        <time>2025-07-15T19:55:31.000Z</time>
      </trkpt>
      <trkpt lat="47.60767" lon="-3.053">
        <ele>23</ele>
        <time>2025-07-15T19:56:49.000Z</time>
      </trkpt>
      <trkpt lat="47.60834" lon="-3.0524">
        <ele>22</ele>
        <time>2025-07-15T19:58:19.000Z</time>
      </trkpt>
      <trkpt lat="47.60907" lon="-3.05104">
        <ele>20</ele>
        <time>2025-07-15T20:00:33.000Z</time>
      </trkpt>
      <trkpt lat="47.61027" lon="-3.0486">
        <ele>20</ele>
        <time>2025-07-15T20:04:26.000Z</time>
      </trkpt>
      <trkpt lat="47.60825" lon="-3.0465">
        <ele>23</ele>
        <time>2025-07-15T20:09:40.000Z</time>
      </trkpt>
      <trkpt lat="47.60899" lon="-3.04449">
        <ele>25</ele>
        <time>2025-07-15T20:12:58.000Z</time>
      </trkpt>
      <trkpt lat="47.60976" lon="-3.0433">
        <ele>24</ele>
        <time>2025-07-15T20:15:05.000Z</time>
      </trkpt>
      <trkpt lat="47.61051" lon="-3.04277">
        <ele>24</ele>
        <time>2025-07-15T20:16:40.000Z</time>
      </trkpt>
      <trkpt lat="47.61119" lon="-3.0425">
        <ele>22</ele>
        <time>2025-07-15T20:18:01.000Z</time>
      </trkpt>
      <trkpt lat="47.61139" lon="-3.04191">
        <ele>20</ele>
        <time>2025-07-15T20:18:52.000Z</time>
      </trkpt>
      <trkpt lat="47.61129" lon="-3.04114">
        <ele>18</ele>
        <time>2025-07-15T20:19:52.000Z</time>
      </trkpt>
      <trkpt lat="47.61113" lon="-3.04028">
        <ele>16</ele>
        <time>2025-07-15T20:21:01.000Z</time>
      </trkpt>
      <trkpt lat="47.61113" lon="-3.03951">
        <ele>15</ele>
        <time>2025-07-15T20:22:00.000Z</time>
      </trkpt>
      <trkpt lat="47.61114" lon="-3.03858">
        <ele>14</ele>
        <time>2025-07-15T20:23:12.000Z</time>
      </trkpt>
      <trkpt lat="47.61107" lon="-3.03773">
        <ele>14</ele>
        <time>2025-07-15T20:24:18.000Z</time>
      </trkpt>
      <trkpt lat="47.61113" lon="-3.03699">
        <ele>14</ele>
        <time>2025-07-15T20:25:16.000Z</time>
      </trkpt>
      <trkpt lat="47.61132" lon="-3.03627">
        <ele>14</ele>
        <time>2025-07-15T20:26:16.000Z</time>
      </trkpt>
      <trkpt lat="47.61139" lon="-3.0354">
        <ele>15</ele>
        <time>2025-07-15T20:27:34.000Z</time>
      </trkpt>
      <trkpt lat="47.61156" lon="-3.03482">
        <ele>17</ele>
        <time>2025-07-15T20:28:43.000Z</time>
      </trkpt>
      <trkpt lat="47.61182" lon="-3.03433">
        <ele>16</ele>
        <time>2025-07-15T20:29:31.000Z</time>
      </trkpt>
      <trkpt lat="47.61202" lon="-3.03355">
        <ele>18</ele>
        <time>2025-07-15T20:30:56.000Z</time>
      </trkpt>
      <trkpt lat="47.61206" lon="-3.03306">
        <ele>19</ele>
        <time>2025-07-15T20:31:44.000Z</time>
      </trkpt>
      <trkpt lat="47.61245" lon="-3.03219">
        <ele>18</ele>
        <time>2025-07-15T20:33:04.000Z</time>
      </trkpt>
      <trkpt lat="47.6125" lon="-3.03111">
        <ele>17</ele>
        <time>2025-07-15T20:34:28.000Z</time>
      </trkpt>
      <trkpt lat="47.61245" lon="-3.03022">
        <ele>15</ele>
        <time>2025-07-15T20:35:37.000Z</time>
      </trkpt>
      <trkpt lat="47.61197" lon="-3.02981">
        <ele>11</ele>
        <time>2025-07-15T20:36:40.000Z</time>
      </trkpt>
      <trkpt lat="47.61169" lon="-3.02913">
        <ele>7</ele>
        <time>2025-07-15T20:37:42.000Z</time>
      </trkpt>
      <trkpt lat="47.61139" lon="-3.02889">
        <ele>4</ele>
        <time>2025-07-15T20:38:21.000Z</time>
      </trkpt>
      <trkpt lat="47.61143" lon="-3.02802">
        <ele>4</ele>
        <time>2025-07-15T20:39:29.000Z</time>
      </trkpt>
      <trkpt lat="47.61111" lon="-3.0269">
        <ele>4</ele>
        <time>2025-07-15T20:41:03.000Z</time>
      </trkpt>
      <trkpt lat="47.60998" lon="-3.02704">
        <ele>3</ele>
        <time>2025-07-15T20:43:13.000Z</time>
      </trkpt>
      <trkpt lat="47.6095" lon="-3.02717">
        <ele>3</ele>
        <time>2025-07-15T20:44:10.000Z</time>
      </trkpt>
      <trkpt lat="47.60864" lon="-3.02694">
        <ele>4</ele>
        <time>2025-07-15T20:46:00.000Z</time>
      </trkpt>
      <trkpt lat="47.60837" lon="-3.02715">
        <ele>3</ele>
        <time>2025-07-15T20:46:35.000Z</time>
      </trkpt>
      <trkpt lat="47.60817" lon="-3.02752">
        <ele>4</ele>
        <time>2025-07-15T20:47:22.000Z</time>
      </trkpt>
      <trkpt lat="47.60811" lon="-3.02813">
        <ele>4</ele>
        <time>2025-07-15T20:48:09.000Z</time>
      </trkpt>
      <trkpt lat="47.60794" lon="-3.02865">
        <ele>6</ele>
        <time>2025-07-15T20:49:14.000Z</time>
      </trkpt>
      <trkpt lat="47.60755" lon="-3.03018">
        <ele>10</ele>
        <time>2025-07-15T20:52:02.000Z</time>
      </trkpt>
      <trkpt lat="47.6077" lon="-3.03073">
        <ele>12</ele>
        <time>2025-07-15T20:53:09.000Z</time>
      </trkpt>
      <trkpt lat="47.60744" lon="-3.03237">
        <ele>17</ele>
        <time>2025-07-15T20:56:11.000Z</time>
      </trkpt>
      <trkpt lat="47.60649" lon="-3.03209">
        <ele>18</ele>
        <time>2025-07-15T20:58:12.000Z</time>
      </trkpt>
      <trkpt lat="47.60626" lon="-3.032">
        <ele>18</ele>
        <time>2025-07-15T20:58:39.000Z</time>
      </trkpt>
      <trkpt lat="47.6059" lon="-3.03171">
        <ele>17</ele>
        <time>2025-07-15T20:59:26.000Z</time>
      </trkpt>
      <trkpt lat="47.60549" lon="-3.03169">
        <ele>16</ele>
        <time>2025-07-15T21:00:13.000Z</time>
      </trkpt>
      <trkpt lat="47.60468" lon="-3.03207">
        <ele>15</ele>
        <time>2025-07-15T21:01:50.000Z</time>
      </trkpt>
      <trkpt lat="47.60433" lon="-3.03228">
        <ele>13</ele>
        <time>2025-07-15T21:02:33.000Z</time>
      </trkpt>
      <trkpt lat="47.60338" lon="-3.03223">
        <ele>14</ele>
        <time>2025-07-15T21:04:32.000Z</time>
      </trkpt>
      <trkpt lat="47.60275" lon="-3.0325">
        <ele>13</ele>
        <time>2025-07-15T21:05:48.000Z</time>
      </trkpt>
      <trkpt lat="47.60163" lon="-3.03373">
        <ele>13</ele>
        <time>2025-07-15T21:08:27.000Z</time>
      </trkpt>
      <trkpt lat="47.60111" lon="-3.03381">
        <ele>12</ele>
        <time>2025-07-15T21:09:26.000Z</time>
      </trkpt>
      <trkpt lat="47.60027" lon="-3.03384">
        <ele>9</ele>
        <time>2025-07-15T21:11:02.000Z</time>
      </trkpt>
      <trkpt lat="47.59937" lon="-3.03379">
        <ele>11</ele>
        <time>2025-07-15T21:13:06.000Z</time>
      </trkpt>
      <trkpt lat="47.59884" lon="-3.03355">
        <ele>13</ele>
        <time>2025-07-15T21:14:30.000Z</time>
      </trkpt>
      <trkpt lat="47.59827" lon="-3.03296">
        <ele>15</ele>
        <time>2025-07-15T21:16:10.000Z</time>
      </trkpt>
      <trkpt lat="47.5975" lon="-3.03175">
        <ele>17</ele>
        <time>2025-07-15T21:18:39.000Z</time>
      </trkpt>
      <trkpt lat="47.59684" lon="-3.03147">
        <ele>18</ele>
        <time>2025-07-15T21:20:08.000Z</time>
      </trkpt>
      <trkpt lat="47.59636" lon="-3.03125">
        <ele>18</ele>
        <time>2025-07-15T21:21:06.000Z</time>
      </trkpt>
      <trkpt lat="47.59552" lon="-3.03066">
        <ele>18</ele>
        <time>2025-07-15T21:22:53.000Z</time>
      </trkpt>
      <trkpt lat="47.59477" lon="-3.03014">
        <ele>19</ele>
        <time>2025-07-15T21:24:37.000Z</time>
      </trkpt>
      <trkpt lat="47.59405" lon="-3.02993">
        <ele>16</ele>
        <time>2025-07-15T21:26:01.000Z</time>
      </trkpt>
      <trkpt lat="47.59422" lon="-3.02907">
        <ele>16</ele>
        <time>2025-07-15T21:27:11.000Z</time>
      </trkpt>
      <trkpt lat="47.59416" lon="-3.02858">
        <ele>15</ele>
        <time>2025-07-15T21:27:49.000Z</time>
      </trkpt>
      <trkpt lat="47.59406" lon="-3.02821">
        <ele>14</ele>
        <time>2025-07-15T21:28:20.000Z</time>
      </trkpt>
      <trkpt lat="47.59402" lon="-3.02734">
        <ele>14</ele>
        <time>2025-07-15T21:29:28.000Z</time>
      </trkpt>
      <trkpt lat="47.59378" lon="-3.02693">
        <ele>14</ele>
        <time>2025-07-15T21:30:10.000Z</time>
      </trkpt>
      <trkpt lat="47.59351" lon="-3.02646">
        <ele>14</ele>
        <time>2025-07-15T21:30:57.000Z</time>
      </trkpt>
      <trkpt lat="47.59321" lon="-3.02498">
        <ele>10</ele>
        <time>2025-07-15T21:32:56.000Z</time>
      </trkpt>
      <trkpt lat="47.59297" lon="-3.02472">
        <ele>10</ele>
        <time>2025-07-15T21:33:30.000Z</time>
      </trkpt>
      <trkpt lat="47.59243" lon="-3.02391">
        <ele>5</ele>
        <time>2025-07-15T21:34:58.000Z</time>
      </trkpt>
      <trkpt lat="47.5922" lon="-3.02372">
        <ele>2</ele>
        <time>2025-07-15T21:35:28.000Z</time>
      </trkpt>
      <trkpt lat="47.59213" lon="-3.02427">
        <ele>3</ele>
        <time>2025-07-15T21:36:22.000Z</time>
      </trkpt>
      <trkpt lat="47.59234" lon="-3.025">
        <ele>3</ele>
        <time>2025-07-15T21:37:23.000Z</time>
      </trkpt>
      <trkpt lat="47.59187" lon="-3.0271">
        <ele>4</ele>
        <time>2025-07-15T21:40:24.000Z</time>
      </trkpt>
      <trkpt lat="47.59082" lon="-3.02702">
        <ele>4</ele>
        <time>2025-07-15T21:42:24.000Z</time>
      </trkpt>
      <trkpt lat="47.59087" lon="-3.0281">
        <ele>4</ele>
        <time>2025-07-15T21:43:48.000Z</time>
      </trkpt>
      <trkpt lat="47.58975" lon="-3.02864">
        <ele>4</ele>
        <time>2025-07-15T21:46:03.000Z</time>
      </trkpt>
      <trkpt lat="47.58923" lon="-3.02851">
        <ele>4</ele>
        <time>2025-07-15T21:47:03.000Z</time>
      </trkpt>
      <trkpt lat="47.58857" lon="-3.02799">
        <ele>4</ele>
        <time>2025-07-15T21:48:29.000Z</time>
      </trkpt>
      <trkpt lat="47.58777" lon="-3.02733">
        <ele>4</ele>
        <time>2025-07-15T21:50:14.000Z</time>
      </trkpt>
      <trkpt lat="47.58731" lon="-3.02707">
        <ele>4</ele>
        <time>2025-07-15T21:51:10.000Z</time>
      </trkpt>
      <trkpt lat="47.58735" lon="-3.02651">
        <ele>4</ele>
        <time>2025-07-15T21:51:53.000Z</time>
      </trkpt>
      <trkpt lat="47.58716" lon="-3.02642">
        <ele>4</ele>
        <time>2025-07-15T21:52:15.000Z</time>
      </trkpt>
      <trkpt lat="47.58798" lon="-3.02431">
        <ele>4</ele>
        <time>2025-07-15T21:55:23.000Z</time>
      </trkpt>
      <trkpt lat="47.58717" lon="-3.02642">
        <ele>4</ele>
        <time>2025-07-15T21:58:31.000Z</time>
      </trkpt>
      <trkpt lat="47.587" lon="-3.02699">
        <ele>3</ele>
        <time>2025-07-15T21:59:19.000Z</time>
      </trkpt>
      <trkpt lat="47.58735" lon="-3.02746">
        <ele>4</ele>
        <time>2025-07-15T22:00:23.000Z</time>
      </trkpt>
    </trkseg>
  </trk>
</gpx>